Lincoln, NE (68516)

1:10 PM CST on February 25, 2017 (GMT -0600)
Cripple Creek | | Change Station

Elev 1329 ft 40.74 °N, 96.66 °W | Updated 33 seconds ago

Partly Cloudy
Partly Cloudy
33.6 °F
Feels Like 31 °F
N
3.2
Wind Variable Wind from SSW

Today
High -- | Low -- °F
--% Chance of Precip.
Yesterday
High -- | Low -- °F
Precip. -- in
Pressure 30.16 in
Visibility 10.0 miles
Clouds Few 7000 ft
Windchill 31 °F
Dew Point 20 °F
Humidity 56%
Rainfall 0.02 in
Snow Depth Not available.
7:06 AM 6:13 PM
Waning Crescent, 1% visible
METAR KLNK 251854Z 24006KT 10SM FEW070 M02/M08 A3012 RMK AO2 SLP213 T10221083 PNO
Pressure 30.16 in
Visibility 10.0 miles
Clouds Few 7000 ft
Windchill 31 °F
Dew Point 20 °F
Humidity 56%
Rainfall 0.02 in
Snow Depth Not available.
7:06 AM 6:13 PM
Waning Crescent, 1% visible
METAR KLNK 251854Z 24006KT 10SM FEW070 M02/M08 A3012 RMK AO2 SLP213 T10221083 PNO

Get Your Daily Forecast Email!

Thanks for signing up!

Be on the lookout for a verification email in your inbox.

You'll start receiving the daily forecast at 8 AM.

×

10-Day Weather Forecast

Almanac

Astronomy

Feb. 25, 2017 Rise Set
Actual Time
Civil Twilight
Nautical Twilight
Astronomical Twilight
Moon
Length of Visible Light
Length of Day
Tomorrow will be .
, % of the Moon is Illuminated

Today's Extremes

State Highs State Lows

Community

WunderPhotos

Upload Photos

1,962,540 photos uploaded!

WunderBlog® & News

Nearby

Air Quality

  Air Quality AQ Index Pollutant
Not available.

Snow Depth

Station Depth Elevation

Earthquake Activity

City Distance Mag. Time & Date
Minimum magnitude displayed is 2.5.

Coastal Water Temperatures

Place Temperature

Stations

Nearby Weather Stations

Station Location Temp. Windchill Dew Point Humidity Wind Precip. Elev Updated Type
                   

Watches & Warnings

There are currently no watches in effect.